Flight Track Log - Related Links

Times and Time Zones

All times are in EDT time to prevent confusion due to time zone crossing. See the EJA929 flight status page for this flight to view local times or setup timezone preferences in your user account.

Time Position Orientation Groundspeed Altitude Reporting Facility
EDT Latitude Longitude Course Direction KTS MPH feet Rate Location/Type
Fri 18:58:35 34.0000 -118.5000 267° West 203 234 2,600  Level Southern California TRACON
Fri 18:59:45 33.9961 -118.5803 267° West 221 254 6,500 2,000 Climbing Los Angeles Center
Fri 19:00:47 34.0583 -118.6122 337° Northwest 280 322 7,000 629 Climbing Los Angeles Center
Fri 19:01:49 34.1294 -118.5600 31° Northeast 279 321 7,800 1,968 Climbing Los Angeles Center
Fri 19:02:52 34.1992 -118.5114 30° Northeast 284 327 11,100 2,832 Climbing Los Angeles Center
Fri 19:03:54 34.2750 -118.4603 29° Northeast 306 352 13,700 2,468 Climbing Los Angeles Center
Fri 19:04:56 34.3567 -118.4056 29° Northeast 329 379 16,200 2,371 Climbing Los Angeles Center
Fri 19:05:58 34.4400 -118.3464 30° Northeast 345 397 18,600 2,274 Climbing Los Angeles Center
Fri 19:07:00 34.4861 -118.2336 64° Northeast 378 435 20,900 2,371 Climbing Los Angeles Center
Fri 19:08:02 34.5258 -118.0975 70° East 391 450 23,500 2,323 Climbing Los Angeles Center
Fri 19:09:04 34.5625 -117.9703 71° East 397 457 25,700 1,694 Climbing Los Angeles Center
Fri 19:10:06 34.6019 -117.8375 70° East 412 474 27,000 677 Climbing Los Angeles Center
Fri 19:11:08 34.6519 -117.6597 71° East 464 534 27,100 48 Climbing Los Angeles Center
Fri 19:12:11 34.6964 -117.5058 71° East 484 557 27,100  Level Los Angeles Center
Fri 19:13:13 34.7411 -117.3519 70° East 488 562 27,100  Level Los Angeles Center
Fri 19:14:15 34.7847 -117.1989 71° East 485 558 27,100 -48 Level Los Angeles Center
Fri 19:15:17 34.8414 -117.0169 69° East 484 557 27,000 -48 Descending Los Angeles Center
Fri 19:16:19 34.9028 -116.8750 62° Northeast 477 549 27,000  Level Los Angeles Center
Fri 19:17:21 34.9642 -116.7317 62° Northeast 479 551 27,000 -339 Level Los Angeles Center
Fri 19:18:23 35.0258 -116.5858 63° Northeast 484 557 26,300 -1,210 Descending Los Angeles Center
Fri 19:19:25 35.0814 -116.4478 64° Northeast 467 537 24,500 -2,226 Descending Los Angeles Center
Fri 19:20:27 35.1581 -116.3308 51° Northeast 450 518 21,700 -2,565 Descending Los Angeles Center
Fri 19:21:29 35.2603 -116.2031 46° Northeast 442 509 19,200 -2,081 Descending Los Angeles Center
Fri 19:22:31 35.3425 -116.0972 46° Northeast 433 498 17,400 -1,440 Descending Los Angeles Center
Fri 19:23:34 35.4264 -115.9925 45° Northeast 430 495 16,200 -1,200 Descending Los Angeles Center
Fri 19:24:36 35.5075 -115.8908 46° Northeast 425 489 14,900 -1,258 Descending Los Angeles Center
Fri 19:25:38 35.5786 -115.7994 46° Northeast 347 399 13,600 -919 Descending Los Angeles Center
Fri 19:26:40 35.6358 -115.7269 46° Northeast 307 353 13,000 -290 Descending Los Angeles Center
Fri 19:27:42 35.6981 -115.6667 38° Northeast 294 338 13,000  Level Los Angeles Center
Fri 19:28:44 35.7275 -115.7261 301° West 249 287 13,000  Level Los Angeles Center
Fri 19:29:19 35.6758 -115.7253 179° South 267 307 13,000  Level Los Angeles Center
Fri 19:29:46 35.6683 -115.6878 104° East 264 304 13,000  Level Los Angeles Center
Fri 19:30:20 35.6925 -115.6511 51° Northeast 262 302 13,000  Level Los Angeles Center
Fri 19:30:48 35.7156 -115.6239 44° Northeast 255 293 13,000  Level Los Angeles Center
Fri 19:31:21 35.7439 -115.5897 44° Northeast 262 302 13,000  Level Los Angeles Center
Fri 19:31:50 35.7744 -115.5731 24° Northeast 252 290 13,000  Level Los Angeles Center
Fri 19:32:22 35.8156 -115.5717 North 260 299 13,000  Level Los Angeles Center
Fri 19:32:53 35.8533 -115.5678 North 262 302 13,000 -492 Level Los Angeles Center
Fri 19:33:23 35.8881 -115.5669 North 257 296 12,500 -968 Descending Los Angeles Center
Fri 19:33:55 35.9231 -115.5653 North 252 290 12,000 -556 Descending Los Angeles Center
Fri 19:34:17 35.9475 -115.5636 North 248 285 12,000  Level Los Angeles Center
Fri 19:34:57 35.9836 -115.5531 13° North 249 287 12,000 -358 Level Los Angeles Center
Fri 19:35:24 36.0042 -115.5053 62° Northeast 261 300 11,600 -484 Descending Los Angeles Center
Fri 19:35:59 36.0144 -115.4567 75° East 257 296 11,500 -295 Descending Los Angeles Center
Fri 19:36:25 36.0206 -115.4203 78° East 257 296 11,300 -484 Descending Los Angeles Center
Fri 19:37:01 36.0294 -115.3681 78° East 261 300 11,000 -885 Descending Los Angeles Center
Fri 19:37:26 36.0258 -115.3256 96° East 274 315 10,400 -1,161 Descending Los Angeles Center
Fri 19:38:03 36.0233 -115.2733 93° East 273 314 9,800 -1,082 Descending Los Angeles Center
Fri 19:38:27 36.0203 -115.2292 95° East 261 300 9,300 -871 Descending Los Angeles Center
Fri 19:39:05 36.0181 -115.1886 94° East 259 298 8,900 -787 Descending Los Angeles Center
Fri 19:39:28 36.0131 -115.1464 98° East 251 289 8,500 -677 Descending Los Angeles Center
Fri 19:40:07 36.0117 -115.1061 92° East 248 285 8,200 -393 Descending Los Angeles Center
Fri 19:40:29 36.0100 -115.0731 94° East 211 243 8,100 -194 Descending Los Angeles Center
Fri 19:41:09 36.0239 -115.0322 67° East 213 245 8,000 -109 Descending Los Angeles Center
Fri 19:41:24 36.0372 -115.0294 10° North 212 244 8,000 -871 Level Los Angeles Center
Fri 19:42:11 36.0786 -115.0133 17° North 209 241 7,100 -1,182 Descending Los Angeles Center
Fri 19:42:30 36.1003 -115.0111 North 192 221 6,700 -1,333 Descending Los Angeles Center
Fri 19:43:14 36.1197 -115.0369 313° West 199 229 5,700 -1,672 Descending Los Angeles Center
Fri 19:43:31 36.1283 -115.0606 294° West 176 203 5,000 -1,839 Descending Los Angeles Center
Fri 19:44:16 36.1436 -115.0906 302° West 182 209 3,800 -1,475 Descending Los Angeles Center
Fri 19:44:32 36.1467 -115.1156 279° West 145 167 3,500 -677 Descending Los Angeles Center
Fri 19:45:18 36.1347 -115.1336 231° Southwest 163 188 3,100 -787 Descending Los Angeles Center
Fri 19:45:33 36.1208 -115.1456 215° Southwest 139 160 2,700 -774 Descending Los Angeles Center
Fri 19:46:20 36.0972 -115.1569 201° Southwest 149 171 2,300 -511 Descending Los Angeles Center
Fri 19:48:00 36.0801 -115.1523 97° East  Level Estimated

Login

Don't have an account? Register now (free) for customized features, flight alerts, and more!